Bay City, TX

9:41 AM CST on December 27, 2014 (GMT -0600)
Brazoria County | Change Station
CLOSE
Current Station
Airport
Location: Angleton,
Elevation: 23 ft
Nearby Weather Stations

Elev 23 ft 29.12 °N, 95.46 °W | Updated 22 minutes ago

Overcast
Overcast
73 °F
Feels Like 73 °F
N
12
Wind Variable Wind from South

Today
High -- | Low -- °F
--% Chance of Precip.
Yesterday
High -- | Low -- °F
Precip. -- in
7:15 AM 5:34 PM
Waxing Crescent, 37% visible
Pressure 30.03 in
Visibility 10.0 miles
Clouds Mostly Cloudy 1000 ft
Overcast 5500 ft
Dew Point 71 °F
Humidity 93%
Rainfall 0.00 in
Snow Depth Not available.
UV 1 out of 12
Pollen 5.20 out of 12
Air Quality Not available.
Flu Activity Not available.
SPECI KLBX 271519Z AUTO 18010KT 10SM BKN010 OVC055 23/22 A3003 RMK AO2 CIG 009V013 T02280217

More Conditions Fewer Conditions

Pressure 30.03 in
Visibility 10.0 miles
Clouds Mostly Cloudy 1000 ft
Overcast 5500 ft
Dew Point 71 °F
Humidity 93%
Rainfall 0.00 in
Snow Depth Not available.
UV 1 out of 12
Pollen 5.20 out of 12
Air Quality Not available.
Flu Activity Not available.
SPECI KLBX 271519Z AUTO 18010KT 10SM BKN010 OVC055 23/22 A3003 RMK AO2 CIG 009V013 T02280217

More Conditions Fewer Conditions

10-Day Weather Forecast

Almanac

Astronomy

Dec. 27, 2014 Rise Set
Actual Time
Civil Twilight
Nautical Twilight
Astronomical Twilight
Moon
Length of Visible Light
Length of Day
Tomorrow will be .
, % of the Moon is Illuminated

Today's Extremes

State Highs State Lows

Community

WunderPhotos

Upload Photos

1,780,935 photos uploaded!

WunderBlogs® & News

Nearby

Air Quality

  Air Quality AQ Index Pollutant
Not available.

Snow Depth

Station Depth Elevation

Earthquake Activity

City Distance Mag. Time & Date
Minimum magnitude displayed is 2.5.

Coastal Water Temperatures

Place Temperature

Nearby Weather Stations